Time;durP1;ratioP1;P1;durP2;ratioP2;P2;SDS_P1;SDS_P2;PMS_P1;PMS_P2;Temp;Humidity;BMP_temperature;BMP_pressure;BME280_temperature;BME280_humidity;BME280_pressure;Samples;Min_cycle;Max_cycle;Signal;HPM_P1;HPM_P2
2023/09/02 00:01:09;;;;;;;11.50;4.97;;;15.10;99.90;;;;;;5047847;28;20520;-67
2023/09/02 00:03:39;;;;;;;10.57;5.27;;;15.10;99.90;;;;;;5046729;28;20450;-68
2023/09/02 00:06:07;;;;;;;11.97;4.60;;;15.10;99.90;;;;;;5046874;28;20453;-68
2023/09/02 00:08:35;;;;;;;9.40;3.90;;;15.10;99.90;;;;;;5047698;28;20481;-67
2023/09/02 00:11:02;;;;;;;9.70;4.03;;;15.10;99.90;;;;;;5047952;28;20453;-68
2023/09/02 00:13:30;;;;;;;10.47;4.40;;;15.00;99.90;;;;;;5047498;28;20490;-68
2023/09/02 00:15:58;;;;;;;10.73;4.03;;;14.90;99.90;;;;;;5051871;28;20536;-66
2023/09/02 00:18:26;;;;;;;9.83;3.77;;;14.90;99.90;;;;;;5048649;28;20580;-68
2023/09/02 00:20:56;;;;;;;9.43;3.70;;;14.80;99.90;;;;;;5052057;28;20489;-67
2023/09/02 00:23:23;;;;;;;11.43;5.07;;;14.90;99.90;;;;;;5047257;28;21325;-66
2023/09/02 00:25:51;;;;;;;11.50;4.50;;;14.80;99.90;;;;;;5047487;28;20454;-66
2023/09/02 00:28:19;;;;;;;12.10;4.20;;;14.70;99.90;;;;;;5046768;28;20836;-66
2023/09/02 00:30:47;;;;;;;9.57;3.57;;;14.70;99.90;;;;;;5046072;28;20447;-66
2023/09/02 00:33:15;;;;;;;9.40;3.40;;;14.70;99.90;;;;;;5046773;28;20538;-66
2023/09/02 00:35:44;;;;;;;11.77;3.70;;;14.80;99.90;;;;;;5046425;28;20447;-67
2023/09/02 00:38:13;;;;;;;12.17;4.07;;;14.70;99.90;;;;;;5047205;28;20490;-68
2023/09/02 00:40:46;;;;;;;10.37;3.80;;;14.70;99.90;;;;;;5047396;28;20487;-67
2023/09/02 00:43:14;;;;;;;12.00;4.50;;;14.70;99.90;;;;;;5048565;28;20498;-67
2023/09/02 00:45:44;;;;;;;11.57;3.93;;;15.00;99.90;;;;;;5048693;28;20500;-68
2023/09/02 00:48:12;;;;;;;13.07;3.90;;;15.10;99.90;;;;;;5049780;28;20466;-68
2023/09/02 00:50:40;;;;;;;12.73;4.00;;;15.00;99.90;;;;;;5053398;28;20438;-66
2023/09/02 00:53:08;;;;;;;10.60;4.60;;;14.90;99.90;;;;;;5053353;28;20953;-68
2023/09/02 00:55:39;;;;;;;10.80;3.60;;;14.90;99.90;;;;;;5053619;28;20443;-66
2023/09/02 00:58:08;;;;;;;13.57;5.30;;;14.90;99.90;;;;;;5054136;28;20525;-67
2023/09/02 01:00:36;;;;;;;11.30;3.70;;;14.80;99.90;;;;;;5053906;28;20520;-68
2023/09/02 01:03:04;;;;;;;10.63;3.83;;;14.70;99.90;;;;;;5053561;28;20508;-68
2023/09/02 01:05:34;;;;;;;9.50;3.67;;;14.70;99.90;;;;;;5053406;28;20444;-66
2023/09/02 01:08:05;;;;;;;9.43;3.70;;;14.70;99.90;;;;;;5052652;28;20477;-66
2023/09/02 01:10:36;;;;;;;9.73;3.80;;;14.60;99.90;;;;;;5053428;28;20541;-66
2023/09/02 01:13:06;;;;;;;10.03;4.27;;;14.50;99.90;;;;;;5053136;28;20442;-66
2023/09/02 01:15:34;;;;;;;10.20;3.87;;;14.40;99.90;;;;;;5052995;28;20482;-66
2023/09/02 01:18:02;;;;;;;11.57;3.73;;;14.40;99.90;;;;;;5052873;28;20488;-66
2023/09/02 01:20:54;;;;;;;9.53;3.57;;;14.40;99.90;;;;;;5052704;28;20481;-67
2023/09/02 01:23:52;;;;;;;9.40;4.00;;;14.50;99.90;;;;;;5052618;28;20479;-67
2023/09/02 01:26:30;;;;;;;10.40;4.00;;;14.40;99.90;;;;;;5052513;28;20514;-67
2023/09/02 01:29:05;;;;;;;11.00;3.47;;;14.30;99.90;;;;;;5052688;28;20529;-67
2023/09/02 01:31:34;;;;;;;8.80;3.60;;;14.30;99.90;;;;;;5052633;28;20475;-66
2023/09/02 01:34:04;;;;;;;12.17;4.07;;;14.30;99.90;;;;;;5052313;28;21023;-66
2023/09/02 01:36:33;;;;;;;9.97;4.13;;;14.40;99.90;;;;;;5052254;28;20451;-65
2023/09/02 01:39:02;;;;;;;10.87;4.40;;;14.40;99.90;;;;;;5052352;28;21021;-66
2023/09/02 01:41:31;;;;;;;10.90;4.50;;;14.40;99.90;;;;;;5052102;28;20446;-66
2023/09/02 01:44:01;;;;;;;10.87;4.60;;;14.50;99.90;;;;;;5052295;28;20505;-66
2023/09/02 01:46:29;;;;;;;10.60;4.87;;;14.60;99.90;;;;;;5052301;28;20448;-66
2023/09/02 01:48:57;;;;;;;13.03;3.93;;;14.80;99.90;;;;;;5052206;28;20443;-66
2023/09/02 01:51:26;;;;;;;11.60;4.13;;;14.70;99.90;;;;;;5052198;28;20488;-66
2023/09/02 01:53:54;;;;;;;12.83;4.53;;;14.70;99.90;;;;;;5051596;28;20449;-65
2023/09/02 01:56:23;;;;;;;11.27;4.70;;;14.80;99.90;;;;;;5052417;28;20464;-65
2023/09/02 01:58:53;;;;;;;11.47;4.60;;;14.80;99.90;;;;;;5051659;28;20491;-66
2023/09/02 02:01:23;;;;;;;10.07;4.80;;;14.90;99.90;;;;;;5050813;28;20441;-66
2023/09/02 02:04:00;;;;;;;10.33;4.90;;;14.90;99.90;;;;;;5050981;28;20482;-66
2023/09/02 02:06:31;;;;;;;10.50;4.20;;;14.90;99.90;;;;;;5052231;28;20992;-67
2023/09/02 02:09:05;;;;;;;12.13;5.40;;;14.80;99.90;;;;;;5051821;28;20542;-66
2023/09/02 02:11:36;;;;;;;12.07;4.50;;;14.80;99.90;;;;;;5052172;28;20439;-67
2023/09/02 02:14:05;;;;;;;14.07;6.23;;;14.90;99.90;;;;;;5051540;28;20436;-66
2023/09/02 02:16:35;;;;;;;11.23;4.70;;;14.90;99.90;;;;;;5051726;28;20443;-67
2023/09/02 02:19:03;;;;;;;12.87;5.43;;;14.80;99.90;;;;;;5051571;28;21042;-67
2023/09/02 02:21:31;;;;;;;10.87;4.63;;;14.70;99.90;;;;;;5051629;28;20864;-67
2023/09/02 02:23:59;;;;;;;9.50;4.13;;;14.60;99.90;;;;;;5051412;28;20445;-66
2023/09/02 02:26:27;;;;;;;10.97;4.60;;;14.60;99.90;;;;;;5051605;28;20473;-66
2023/09/02 02:28:55;;;;;;;11.53;4.57;;;14.50;99.90;;;;;;5051876;28;20965;-66
2023/09/02 02:31:23;;;;;;;11.70;4.40;;;14.40;99.90;;;;;;5051253;28;20458;-66
2023/09/02 02:33:52;;;;;;;15.70;5.47;;;14.40;99.90;;;;;;5051129;28;20854;-66
2023/09/02 02:36:20;;;;;;;12.27;4.47;;;14.40;99.90;;;;;;5051405;28;20445;-67
2023/09/02 02:38:48;;;;;;;10.43;4.50;;;14.30;99.90;;;;;;5051406;28;20524;-66
2023/09/02 02:41:16;;;;;;;9.10;3.47;;;14.30;99.90;;;;;;5051658;28;20442;-67
2023/09/02 02:43:44;;;;;;;9.93;4.40;;;14.30;99.90;;;;;;5050747;28;20456;-67
2023/09/02 02:46:12;;;;;;;9.33;3.67;;;14.30;99.90;;;;;;5051175;28;20550;-67
2023/09/02 02:48:40;;;;;;;9.27;3.60;;;14.20;99.90;;;;;;5050831;28;20546;-66
2023/09/02 02:51:09;;;;;;;9.33;4.13;;;14.20;99.90;;;;;;5051387;28;20519;-66
2023/09/02 02:53:37;;;;;;;9.53;3.77;;;14.10;99.90;;;;;;5050842;28;20444;-66
2023/09/02 02:56:05;;;;;;;9.80;3.60;;;14.10;99.90;;;;;;5051308;28;20479;-66
2023/09/02 02:58:33;;;;;;;9.80;3.47;;;14.10;99.90;;;;;;5050764;28;20858;-66
2023/09/02 03:01:06;;;;;;;11.50;4.03;;;14.10;99.90;;;;;;5050847;28;20495;-66
2023/09/02 03:03:35;;;;;;;8.67;3.23;;;14.10;99.90;;;;;;5050509;28;21052;-67
2023/09/02 03:06:04;;;;;;;11.00;3.73;;;14.20;99.90;;;;;;5050784;28;20844;-66
2023/09/02 03:08:34;;;;;;;8.30;3.60;;;14.10;99.90;;;;;;5050572;28;20654;-66
2023/09/02 03:11:04;;;;;;;8.50;3.20;;;14.00;99.90;;;;;;5050270;28;20443;-67
2023/09/02 03:13:33;;;;;;;11.20;3.60;;;14.00;99.90;;;;;;5050400;28;20555;-67
2023/09/02 03:16:02;;;;;;;9.60;3.10;;;14.00;99.90;;;;;;5050649;28;20505;-67
2023/09/02 03:18:30;;;;;;;9.20;3.23;;;14.20;99.90;;;;;;5050556;28;21043;-67
2023/09/02 03:21:03;;;;;;;10.47;3.97;;;14.30;99.90;;;;;;5050448;28;20451;-66
2023/09/02 03:23:31;;;;;;;10.23;3.33;;;14.30;99.90;;;;;;5050266;28;20444;-65
2023/09/02 03:26:08;;;;;;;9.07;3.20;;;14.30;99.90;;;;;;5050550;28;20448;-66
2023/09/02 03:28:36;;;;;;;8.03;2.67;;;14.20;99.90;;;;;;5050551;28;20518;-66
2023/09/02 03:31:06;;;;;;;11.20;3.40;;;14.20;99.90;;;;;;5050372;28;20544;-66
2023/09/02 03:33:34;;;;;;;9.77;3.70;;;14.30;99.90;;;;;;5050018;28;20933;-67
2023/09/02 03:36:03;;;;;;;11.63;4.17;;;14.20;99.90;;;;;;5050009;28;20451;-66
2023/09/02 03:38:31;;;;;;;10.10;3.63;;;14.20;99.90;;;;;;5050053;28;20484;-66
2023/09/02 03:40:59;;;;;;;9.47;3.73;;;14.20;99.90;;;;;;5050228;28;20494;-66
2023/09/02 03:43:28;;;;;;;9.30;3.10;;;14.20;99.90;;;;;;5050272;28;20447;-66
2023/09/02 03:45:58;;;;;;;10.90;3.40;;;14.20;99.90;;;;;;5049994;28;20609;-66
2023/09/02 03:48:26;;;;;;;9.10;4.30;;;14.10;99.90;;;;;;5049775;28;20452;-66
2023/09/02 03:51:03;;;;;;;9.03;3.60;;;14.10;99.90;;;;;;5050146;28;20452;-66
2023/09/02 03:53:31;;;;;;;10.50;4.20;;;14.00;99.90;;;;;;5049477;28;20974;-66
2023/09/02 03:55:59;;;;;;;10.20;3.47;;;14.00;99.90;;;;;;5049840;28;20448;-66
2023/09/02 03:58:29;;;;;;;9.70;3.80;;;13.90;99.90;;;;;;5049653;28;20465;-66
2023/09/02 04:00:57;;;;;;;10.60;4.40;;;13.80;99.90;;;;;;5049873;28;20451;-66
2023/09/02 04:03:26;;;;;;;9.17;3.17;;;13.80;99.90;;;;;;5049468;28;20448;-66
2023/09/02 04:05:55;;;;;;;9.27;3.77;;;13.80;99.90;;;;;;5049936;28;20444;-67
2023/09/02 04:08:25;;;;;;;10.70;3.50;;;13.80;99.90;;;;;;5049437;28;20597;-66
2023/09/02 04:10:55;;;;;;;9.27;2.90;;;13.90;99.90;;;;;;5049837;28;20451;-66
2023/09/02 04:13:24;;;;;;;8.80;3.10;;;13.90;99.90;;;;;;5049156;28;20444;-66
2023/09/02 04:15:56;;;;;;;9.33;3.63;;;13.80;99.90;;;;;;5049588;28;20448;-66
2023/09/02 04:18:24;;;;;;;9.00;3.73;;;13.80;99.90;;;;;;5049888;28;20457;-66
2023/09/02 04:20:53;;;;;;;12.67;3.37;;;13.70;99.90;;;;;;5049276;28;20440;-66
2023/09/02 04:23:21;;;;;;;8.43;3.20;;;13.70;99.90;;;;;;5048914;28;20457;-67
2023/09/02 04:25:51;;;;;;;10.37;3.60;;;13.60;99.90;;;;;;5049237;28;20444;-66
2023/09/02 04:28:19;;;;;;;9.53;3.70;;;13.50;99.90;;;;;;5049335;28;20991;-66
2023/09/02 04:30:48;;;;;;;9.87;3.50;;;13.50;99.90;;;;;;5049213;28;20449;-66
2023/09/02 04:33:18;;;;;;;23.00;6.50;;;13.60;99.90;;;;;;5049388;28;20457;-66
2023/09/02 04:35:46;;;;;;;9.00;3.30;;;13.50;99.90;;;;;;5049441;28;20573;-66
2023/09/02 04:38:15;;;;;;;9.47;4.07;;;13.50;99.90;;;;;;5049468;28;20464;-66
2023/09/02 04:40:44;;;;;;;9.00;3.30;;;13.50;99.90;;;;;;5049288;28;20537;-65
2023/09/02 04:43:13;;;;;;;8.37;3.20;;;13.50;99.90;;;;;;5049140;28;20444;-64
2023/09/02 04:45:42;;;;;;;10.00;3.33;;;13.60;99.90;;;;;;5049459;28;20437;-66
2023/09/02 04:48:11;;;;;;;9.97;3.77;;;13.50;99.90;;;;;;5049023;28;20526;-66
2023/09/02 04:50:40;;;;;;;13.67;4.23;;;13.60;99.90;;;;;;5049533;28;20445;-66
2023/09/02 04:53:09;;;;;;;10.07;3.60;;;13.50;99.90;;;;;;5049328;28;20491;-66
2023/09/02 04:55:39;;;;;;;9.47;3.33;;;13.50;99.90;;;;;;5049877;28;20457;-66
2023/09/02 04:58:08;;;;;;;7.80;2.60;;;13.50;99.90;;;;;;5049037;28;20467;-65
2023/09/02 05:00:37;;;;;;;9.90;3.63;;;13.50;99.90;;;;;;5049350;28;20484;-66
2023/09/02 05:03:06;;;;;;;8.70;3.27;;;13.50;99.90;;;;;;5049005;28;21132;-66
2023/09/02 05:05:33;;;;;;;8.77;3.20;;;13.40;99.90;;;;;;5049335;28;20535;-67
2023/09/02 05:08:03;;;;;;;9.77;3.43;;;13.40;99.90;;;;;;5049034;28;20522;-66
2023/09/02 05:10:31;;;;;;;8.50;3.20;;;13.40;99.90;;;;;;5049204;28;20446;-66
2023/09/02 05:12:59;;;;;;;8.27;3.10;;;13.50;99.90;;;;;;5048962;28;20436;-66
2023/09/02 05:15:27;;;;;;;8.97;3.20;;;13.60;99.90;;;;;;5048789;28;20547;-66
2023/09/02 05:17:58;;;;;;;11.07;3.40;;;13.60;99.90;;;;;;5049139;28;20470;-67
2023/09/02 05:20:26;;;;;;;9.00;3.00;;;13.60;99.90;;;;;;5048649;28;20484;-67
2023/09/02 05:22:54;;;;;;;8.37;3.13;;;13.80;99.90;;;;;;5049112;28;20446;-67
2023/09/02 05:25:23;;;;;;;9.73;3.70;;;13.70;99.90;;;;;;5048806;28;20484;-66
2023/09/02 05:27:51;;;;;;;9.00;2.73;;;13.80;99.90;;;;;;5049146;28;20567;-67
2023/09/02 05:30:19;;;;;;;8.03;2.87;;;13.90;99.90;;;;;;5048959;28;20440;-67
2023/09/02 05:32:47;;;;;;;9.60;2.67;;;13.90;99.90;;;;;;5048510;28;20526;-67
2023/09/02 05:35:15;;;;;;;8.70;3.10;;;14.00;99.90;;;;;;5050117;28;20454;-66
2023/09/02 05:37:43;;;;;;;10.17;3.77;;;14.00;99.90;;;;;;5052155;28;20967;-67
2023/09/02 05:40:11;;;;;;;8.57;2.33;;;14.20;99.90;;;;;;5052450;28;20490;-67
2023/09/02 05:42:42;;;;;;;9.80;2.80;;;14.30;99.90;;;;;;5052156;28;20441;-67
2023/09/02 05:45:10;;;;;;;8.93;3.23;;;14.40;99.90;;;;;;5052560;28;20548;-66
2023/09/02 05:47:38;;;;;;;11.07;3.33;;;14.50;99.90;;;;;;5052243;28;20478;-67
2023/09/02 05:50:07;;;;;;;8.87;3.20;;;14.50;99.90;;;;;;5052446;28;20439;-67
2023/09/02 05:52:35;;;;;;;8.83;3.37;;;14.50;99.90;;;;;;5052183;28;20502;-67
2023/09/02 05:55:03;;;;;;;9.60;3.77;;;14.60;99.90;;;;;;5052179;28;20447;-67
2023/09/02 05:57:32;;;;;;;10.03;3.70;;;14.60;99.90;;;;;;5052276;28;20485;-67
2023/09/02 06:00:03;;;;;;;8.03;2.83;;;14.70;99.90;;;;;;5051816;28;20529;-67
2023/09/02 06:02:34;;;;;;;8.40;3.17;;;14.80;99.90;;;;;;5052105;28;20547;-67
2023/09/02 06:05:02;;;;;;;10.70;3.17;;;14.90;99.90;;;;;;5052222;28;20443;-68
2023/09/02 06:07:30;;;;;;;9.17;3.60;;;14.90;99.90;;;;;;5052231;28;20541;-66
2023/09/02 06:09:58;;;;;;;13.30;3.90;;;15.00;99.90;;;;;;5051782;28;20447;-67
2023/09/02 06:12:26;;;;;;;9.80;3.83;;;15.10;99.90;;;;;;5051710;28;20476;-67
2023/09/02 06:14:54;;;;;;;10.07;3.67;;;15.30;99.90;;;;;;5051801;28;20524;-66
2023/09/02 06:17:30;;;;;;;8.13;3.10;;;15.30;99.90;;;;;;5052019;28;20474;-67
2023/09/02 06:19:58;;;;;;;11.10;3.20;;;15.40;99.90;;;;;;5051872;28;20904;-66
2023/09/02 06:22:27;;;;;;;10.13;3.47;;;15.50;99.90;;;;;;5051424;28;20436;-67
2023/09/02 06:24:55;;;;;;;9.70;4.10;;;15.60;99.90;;;;;;5051604;28;20444;-66
2023/09/02 06:27:23;;;;;;;10.33;3.73;;;15.70;99.90;;;;;;5051618;28;20468;-67
2023/09/02 06:29:51;;;;;;;9.70;3.67;;;15.70;99.90;;;;;;5051837;28;20448;-67
2023/09/02 06:32:19;;;;;;;11.17;3.63;;;15.80;99.90;;;;;;5051352;28;20440;-67
2023/09/02 06:34:50;;;;;;;8.30;3.40;;;15.80;99.90;;;;;;5051461;28;20440;-67
2023/09/02 06:37:18;;;;;;;10.70;3.60;;;15.90;99.90;;;;;;5051165;28;20542;-67
2023/09/02 06:39:45;;;;;;;8.57;3.23;;;16.00;99.90;;;;;;5051088;28;20540;-67
2023/09/02 06:42:13;;;;;;;8.27;3.00;;;16.10;99.90;;;;;;5065177;28;20444;-67
2023/09/02 06:44:41;;;;;;;9.30;3.63;;;16.10;99.90;;;;;;5060486;28;20436;-66
2023/09/02 06:47:09;;;;;;;9.40;3.73;;;16.20;99.90;;;;;;5050934;28;20464;-66
2023/09/02 06:49:37;;;;;;;10.30;4.93;;;16.30;99.90;;;;;;5051049;28;20448;-65
2023/09/02 06:52:06;;;;;;;9.30;3.20;;;16.30;99.90;;;;;;5051241;28;20446;-66
2023/09/02 06:54:34;;;;;;;12.03;3.57;;;16.40;99.90;;;;;;5050719;28;20476;-66
2023/09/02 06:57:03;;;;;;;8.30;2.97;;;16.50;99.90;;;;;;5051181;28;20471;-67
2023/09/02 06:59:31;;;;;;;8.70;3.53;;;16.50;99.90;;;;;;5051154;28;20444;-66
2023/09/02 07:01:59;;;;;;;9.40;2.90;;;16.70;99.90;;;;;;5051088;28;20563;-67
2023/09/02 07:04:27;;;;;;;8.50;3.00;;;16.70;99.90;;;;;;5050520;28;20939;-67
2023/09/02 07:06:55;;;;;;;10.67;3.47;;;16.90;99.90;;;;;;5051271;28;20467;-67
2023/09/02 07:09:24;;;;;;;8.73;3.03;;;16.90;99.90;;;;;;5050662;28;20454;-67
2023/09/02 07:11:53;;;;;;;11.83;2.87;;;17.00;99.90;;;;;;5051054;28;20440;-67
2023/09/02 07:14:22;;;;;;;7.87;3.07;;;17.20;99.90;;;;;;5050753;28;20471;-67
2023/09/02 07:16:51;;;;;;;10.47;3.30;;;17.30;99.90;;;;;;5050973;28;20472;-67
2023/09/02 07:19:19;;;;;;;9.53;2.83;;;17.50;99.90;;;;;;5050701;28;20448;-68
2023/09/02 07:21:47;;;;;;;8.93;3.10;;;17.50;99.90;;;;;;5050384;28;20487;-68
2023/09/02 07:24:15;;;;;;;7.90;2.70;;;17.50;99.90;;;;;;5050520;28;20448;-68
2023/09/02 07:26:44;;;;;;;7.77;2.93;;;17.50;99.90;;;;;;5051136;28;20828;-67
2023/09/02 07:29:12;;;;;;;7.50;2.57;;;17.60;99.90;;;;;;5050909;28;20443;-67
2023/09/02 07:31:43;;;;;;;9.20;3.30;;;17.70;99.90;;;;;;5050744;28;20436;-67
2023/09/02 07:34:11;;;;;;;8.03;3.07;;;17.80;99.90;;;;;;5050944;28;20454;-67
2023/09/02 07:36:39;;;;;;;8.30;2.80;;;17.90;99.90;;;;;;5050575;28;20444;-67
2023/09/02 07:39:09;;;;;;;7.73;2.47;;;18.20;99.90;;;;;;5051060;28;20444;-67
2023/09/02 07:41:36;;;;;;;9.23;3.23;;;18.40;99.90;;;;;;5051332;28;20471;-67
2023/09/02 07:44:06;;;;;;;8.23;3.00;;;18.50;99.90;;;;;;5050395;28;20447;-67
2023/09/02 07:46:34;;;;;;;7.50;2.67;;;18.60;99.90;;;;;;5051286;28;20493;-66
2023/09/02 07:49:02;;;;;;;9.20;2.87;;;18.70;99.90;;;;;;5050476;28;20502;-67
2023/09/02 07:51:30;;;;;;;7.73;2.53;;;18.90;99.90;;;;;;5051245;28;20436;-66
2023/09/02 07:53:58;;;;;;;8.10;2.90;;;19.10;99.90;;;;;;5050329;28;20436;-67
2023/09/02 07:56:26;;;;;;;8.00;2.53;;;19.30;99.90;;;;;;5051219;28;20454;-68
2023/09/02 07:58:54;;;;;;;13.00;2.80;;;19.50;99.90;;;;;;5049388;28;20982;-65
2023/09/02 08:01:23;;;;;;;8.32;2.60;;;19.60;99.90;;;;;;5050014;28;20452;-65
2023/09/02 08:03:51;;;;;;;8.37;2.57;;;19.70;99.90;;;;;;5049503;28;20202;-66
2023/09/02 08:06:19;;;;;;;9.50;2.60;;;19.80;99.90;;;;;;5050305;28;20440;-65
2023/09/02 08:08:47;;;;;;;8.93;2.40;;;20.00;99.90;;;;;;5049928;28;20486;-65
2023/09/02 08:11:17;;;;;;;10.50;2.57;;;20.30;99.90;;;;;;5049994;28;20437;-64
2023/09/02 08:13:45;;;;;;;8.17;2.23;;;20.40;99.90;;;;;;5050036;28;21005;-65
2023/09/02 08:16:13;;;;;;;8.33;2.57;;;20.60;99.90;;;;;;5049782;28;20857;-65
2023/09/02 08:18:42;;;;;;;8.20;2.80;;;20.80;99.90;;;;;;5050140;28;20468;-65
2023/09/02 08:21:11;;;;;;;9.90;2.47;;;21.10;99.90;;;;;;5049845;28;20515;-67
2023/09/02 08:23:39;;;;;;;8.20;2.50;;;21.30;99.90;;;;;;5049746;28;20449;-70
2023/09/02 08:26:10;;;;;;;7.90;2.70;;;21.40;99.90;;;;;;5050722;28;20574;-70
2023/09/02 08:28:38;;;;;;;8.47;2.30;;;21.50;99.90;;;;;;5050054;28;20491;-70
2023/09/02 08:31:06;;;;;;;7.50;2.20;;;21.60;99.90;;;;;;5050589;28;20452;-66
2023/09/02 08:33:36;;;;;;;9.10;2.20;;;21.70;99.90;;;;;;5049806;28;20539;-65
2023/09/02 08:36:06;;;;;;;8.67;2.50;;;21.80;99.90;;;;;;5050892;28;21000;-66
2023/09/02 08:38:34;;;;;;;7.70;2.07;;;21.90;99.90;;;;;;5050966;28;20517;-66
2023/09/02 08:41:05;;;;;;;8.53;2.33;;;22.00;99.90;;;;;;5053392;28;20459;-66
2023/09/02 08:43:34;;;;;;;8.30;2.80;;;22.00;99.90;;;;;;5054259;28;20451;-65
2023/09/02 08:46:07;;;;;;;9.90;2.47;;;22.00;99.90;;;;;;5050541;28;20440;-66
2023/09/02 08:48:38;;;;;;;7.50;2.07;;;22.20;99.90;;;;;;5047692;28;20479;-65
2023/09/02 08:51:09;;;;;;;8.27;2.20;;;22.20;99.90;;;;;;5051283;28;20507;-65
2023/09/02 08:53:39;;;;;;;7.30;2.10;;;22.30;99.90;;;;;;5046629;28;20449;-65
2023/09/02 08:56:09;;;;;;;8.17;2.40;;;22.40;99.90;;;;;;5047538;28;20434;-68
2023/09/02 08:58:40;;;;;;;7.47;2.50;;;22.50;99.90;;;;;;5042497;28;20513;-66
2023/09/02 09:01:09;;;;;;;7.77;2.17;;;22.60;99.90;;;;;;5039871;28;20499;-66
2023/09/02 09:03:41;;;;;;;7.37;2.20;;;22.60;99.90;;;;;;5041332;28;20486;-65
2023/09/02 09:06:11;;;;;;;11.33;2.80;;;22.80;99.90;;;;;;5049605;28;20579;-65
2023/09/02 09:08:40;;;;;;;8.30;2.23;;;23.00;99.90;;;;;;5040239;28;20526;-66
2023/09/02 09:11:10;;;;;;;8.93;3.53;;;23.10;99.90;;;;;;5043836;28;20679;-67
2023/09/02 09:13:45;;;;;;;7.97;2.07;;;23.30;99.90;;;;;;5047023;28;20495;-65
2023/09/02 09:16:17;;;;;;;8.50;2.63;;;23.40;99.90;;;;;;5052924;28;20937;-68
2023/09/02 09:18:45;;;;;;;8.63;2.73;;;23.60;99.90;;;;;;5049043;28;20562;-68
2023/09/02 09:21:15;;;;;;;7.43;2.07;;;23.80;99.90;;;;;;5047081;28;20906;-69
2023/09/02 09:23:43;;;;;;;8.17;2.27;;;24.00;99.90;;;;;;5041746;28;20465;-69
2023/09/02 09:26:12;;;;;;;8.53;2.50;;;24.40;99.90;;;;;;5046674;28;20992;-68
2023/09/02 09:28:51;;;;;;;7.90;2.27;;;25.00;99.90;;;;;;5047821;28;20453;-67
2023/09/02 09:31:19;;;;;;;8.07;2.80;;;25.60;99.90;;;;;;5045579;28;20442;-68
2023/09/02 09:33:53;;;;;;;7.87;2.40;;;26.00;99.90;;;;;;5050977;28;20536;-68
2023/09/02 09:36:23;;;;;;;7.97;2.10;;;26.50;99.90;;;;;;5046602;28;20482;-69
2023/09/02 09:38:54;;;;;;;8.07;2.47;;;26.50;99.90;;;;;;5043212;28;20467;-66
2023/09/02 09:41:23;;;;;;;7.70;1.90;;;26.70;99.90;;;;;;5046275;28;20554;-68
2023/09/02 09:44:08;;;;;;;7.80;2.40;;;27.00;99.90;;;;;;5050855;28;20443;-68
2023/09/02 09:46:36;;;;;;;7.97;2.17;;;27.10;99.90;;;;;;5044403;28;20440;-68
2023/09/02 09:49:04;;;;;;;7.83;2.47;;;27.20;99.90;;;;;;5043769;28;20527;-68
2023/09/02 09:51:33;;;;;;;7.70;2.47;;;27.30;99.90;;;;;;5058237;28;20436;-67
2023/09/02 09:54:02;;;;;;;8.43;2.67;;;27.10;99.90;;;;;;5043225;28;20867;-67
2023/09/02 09:56:30;;;;;;;7.87;2.20;;;27.40;99.90;;;;;;5047583;28;20477;-67
2023/09/02 09:59:08;;;;;;;8.10;2.43;;;27.60;99.90;;;;;;5043061;28;20476;-67
2023/09/02 10:01:36;;;;;;;8.10;2.33;;;28.00;99.90;;;;;;5045588;28;20542;-66
2023/09/02 10:04:08;;;;;;;8.97;2.50;;;28.20;99.90;;;;;;5043774;28;20458;-68
2023/09/02 10:06:39;;;;;;;7.77;2.50;;;28.30;99.90;;;;;;5046346;28;20826;-68
2023/09/02 10:09:07;;;;;;;8.30;2.20;;;28.50;99.90;;;;;;5031925;28;20457;-68
2023/09/02 10:11:36;;;;;;;7.33;2.20;;;28.70;99.90;;;;;;5041850;28;20733;-68
2023/09/02 10:14:05;;;;;;;7.67;1.90;;;28.80;99.90;;;;;;5046783;28;20444;-68
2023/09/02 10:16:35;;;;;;;7.87;2.37;;;28.80;99.90;;;;;;5048032;28;20530;-68
2023/09/02 10:19:04;;;;;;;7.20;2.00;;;28.60;99.90;;;;;;5050852;28;20539;-68
2023/09/02 10:21:35;;;;;;;10.07;2.40;;;28.90;98.60;;;;;;5044618;28;20463;-68
2023/09/02 10:24:07;;;;;;;8.80;2.27;;;28.90;99.90;;;;;;5051540;28;20475;-68
2023/09/02 10:26:40;;;;;;;7.90;2.10;;;29.00;99.90;;;;;;5051373;28;20444;-67
2023/09/02 10:29:09;;;;;;;8.70;2.23;;;29.30;99.90;;;;;;5051501;28;20527;-68
2023/09/02 10:31:41;;;;;;;7.47;1.87;;;29.60;97.80;;;;;;5051389;28;20815;-68
2023/09/02 10:34:15;;;;;;;7.77;1.80;;;30.00;93.40;;;;;;5050993;28;20443;-66
2023/09/02 10:36:48;;;;;;;7.23;2.10;;;30.30;93.60;;;;;;5051579;28;20439;-69
2023/09/02 10:39:29;;;;;;;8.40;2.10;;;30.50;91.30;;;;;;5051202;28;20454;-69
2023/09/02 10:42:01;;;;;;;7.67;1.80;;;30.50;91.50;;;;;;5051472;28;20444;-68
2023/09/02 10:44:30;;;;;;;7.93;2.00;;;30.80;90.30;;;;;;5048796;28;20484;-68
2023/09/02 10:46:58;;;;;;;8.27;2.70;;;31.00;82.70;;;;;;5048165;28;20471;-68
2023/09/02 10:49:28;;;;;;;7.70;1.60;;;31.30;81.30;;;;;;5051913;28;20961;-69
2023/09/02 10:51:56;;;;;;;8.73;1.87;;;31.30;85.20;;;;;;5056664;28;20965;-69
2023/09/02 10:54:25;;;;;;;8.23;1.60;;;31.20;86.50;;;;;;5050589;28;20471;-69
2023/09/02 10:56:53;;;;;;;8.67;1.83;;;31.40;78.30;;;;;;5050917;28;20456;-68
2023/09/02 10:59:29;;;;;;;7.67;1.70;;;31.70;76.40;;;;;;5051046;28;20448;-69
2023/09/02 11:01:57;;;;;;;7.80;2.37;;;31.80;77.20;;;;;;5050944;28;20486;-69
2023/09/02 11:04:59;;;;;;;6.60;1.30;;;32.00;70.10;;;;;;5050305;28;21036;-68
2023/09/02 11:07:28;;;;;;;8.10;1.80;;;32.00;72.60;;;;;;5046589;28;20467;-69
2023/09/02 11:09:58;;;;;;;7.33;1.93;;;32.20;71.70;;;;;;5050968;28;20451;-69
2023/09/02 11:12:27;;;;;;;7.47;1.73;;;32.10;67.80;;;;;;5051034;28;20436;-69
2023/09/02 11:15:18;;;;;;;8.00;1.30;;;31.20;62.90;;;;;;5050763;28;20506;-68
2023/09/02 11:17:46;;;;;;;7.50;1.93;;;30.70;62.90;;;;;;5050946;28;20970;-67
2023/09/02 11:20:18;;;;;;;7.00;1.77;;;30.50;64.40;;;;;;5050924;28;20934;-69
2023/09/02 11:22:55;;;;;;;6.70;1.53;;;31.00;65.30;;;;;;5043220;28;20509;-69
2023/09/02 11:25:32;;;;;;;7.23;1.43;;;31.60;66.70;;;;;;5039306;28;20433;-68
2023/09/02 11:28:01;;;;;;;7.50;1.40;;;32.50;59.80;;;;;;5038979;28;20457;-69
2023/09/02 11:30:31;;;;;;;7.07;2.07;;;33.00;58.50;;;;;;5042298;28;20472;-70
2023/09/02 11:33:00;;;;;;;7.20;1.50;;;32.20;59.80;;;;;;5042577;28;20526;-70
2023/09/02 11:35:29;;;;;;;7.77;1.50;;;32.50;59.70;;;;;;5051731;28;20444;-70
2023/09/02 11:37:58;;;;;;;7.80;1.60;;;31.90;61.10;;;;;;5031189;28;20457;-70
2023/09/02 11:40:29;;;;;;;7.87;1.70;;;31.90;59.30;;;;;;5031673;28;20471;-71
2023/09/02 11:43:00;;;;;;;6.87;1.40;;;31.70;59.00;;;;;;5046985;28;20487;-70
2023/09/02 11:45:30;;;;;;;7.50;1.53;;;31.70;59.20;;;;;;5047729;28;20438;-72
2023/09/02 11:47:58;;;;;;;7.03;1.67;;;31.90;58.40;;;;;;5050194;28;20471;-70
2023/09/02 11:50:26;;;;;;;6.90;1.60;;;32.20;55.40;;;;;;5050063;28;20468;-69
2023/09/02 11:52:55;;;;;;;6.80;1.50;;;32.20;57.90;;;;;;5048022;28;20801;-69
2023/09/02 11:55:24;;;;;;;6.90;1.60;;;33.00;57.60;;;;;;5054327;28;20471;-70
2023/09/02 11:57:54;;;;;;;6.60;1.30;;;33.70;54.20;;;;;;5041646;28;20476;-70
2023/09/02 12:00:23;;;;;;;6.30;1.20;;;33.90;54.20;;;;;;5048700;28;20443;-69
2023/09/02 12:02:55;;;;;;;6.90;1.53;;;33.10;55.50;;;;;;5053285;28;20541;-68
2023/09/02 12:05:23;;;;;;;9.70;1.80;;;32.60;55.50;;;;;;5042373;28;20939;-69
2023/09/02 12:07:54;;;;;;;6.63;1.43;;;32.00;55.80;;;;;;5046093;28;20543;-69
2023/09/02 12:10:26;;;;;;;6.47;1.37;;;31.90;58.00;;;;;;5042074;28;20440;-71
2023/09/02 12:12:55;;;;;;;6.30;1.40;;;32.70;56.10;;;;;;5041281;28;20463;-70
2023/09/02 12:15:24;;;;;;;8.73;1.40;;;33.60;54.50;;;;;;5035895;28;20520;-71
2023/09/02 12:17:52;;;;;;;7.10;1.50;;;34.00;52.80;;;;;;5028595;28;20464;-72
2023/09/02 12:20:20;;;;;;;6.70;1.40;;;34.40;53.30;;;;;;5037355;28;20468;-75
2023/09/02 12:22:48;;;;;;;6.40;1.30;;;34.50;52.10;;;;;;5038123;28;20445;-73
2023/09/02 12:25:18;;;;;;;6.90;1.60;;;34.40;51.10;;;;;;5043908;28;20448;-72
2023/09/02 12:27:46;;;;;;;7.53;1.50;;;34.90;49.50;;;;;;5039121;28;20563;-71
2023/09/02 12:30:26;;;;;;;7.07;1.43;;;35.20;49.80;;;;;;5042446;28;20895;-72
2023/09/02 12:32:57;;;;;;;6.80;1.50;;;35.20;48.40;;;;;;5041551;28;20861;-72
2023/09/02 12:35:25;;;;;;;6.77;1.30;;;33.90;49.30;;;;;;5037155;28;20531;-73
2023/09/02 12:38:01;;;;;;;6.90;1.70;;;33.60;51.70;;;;;;5040741;28;20452;-73
2023/09/02 12:40:29;;;;;;;7.00;1.47;;;34.20;50.90;;;;;;5042988;28;20968;-73
2023/09/02 12:42:58;;;;;;;7.10;1.70;;;34.70;50.80;;;;;;5039223;28;20440;-71
2023/09/02 12:45:31;;;;;;;7.13;1.60;;;34.20;50.10;;;;;;5044904;28;20443;-73
2023/09/02 12:48:02;;;;;;;6.80;1.40;;;33.30;55.00;;;;;;5038135;28;21049;-73
2023/09/02 12:50:31;;;;;;;7.30;1.83;;;33.30;52.20;;;;;;5034474;28;20441;-73
2023/09/02 12:53:01;;;;;;;8.67;1.33;;;33.50;52.40;;;;;;5035560;28;20533;-71
2023/09/02 12:55:30;;;;;;;6.50;1.33;;;34.10;51.80;;;;;;5044552;28;20457;-72